Saturday, August 18, 2018, 10:00 AM EDT
Back to Local

KFVE, Northern Aroostook Regional

Location: Saint Agatha, ME, United States Lat: 47.283
Local Time: 10:00 AM EDT (14:00 GMT) Lon: -68.3
Time Zone: US/Eastern Elev: 987 ft

Show me the last for .
Show Decoded

2018-08-18 08:53 METAR KFVE 181253Z AUTO 01006KT 10SM CLR 17/14 A2988 RMK AO2 SLP114 T01720139 =
2018-08-18 07:53 METAR KFVE 181153Z AUTO 01006KT 10SM OVC050 16/13 A2989 RMK AO2 SLP115 60007
                 70021 T01610133 10161 20150 53004 =
2018-08-18 06:53 METAR KFVE 181053Z AUTO 01005KT 10SM BKN065 OVC110 16/13 A2988 RMK AO2 SLP113
                 T01560128 =
2018-08-18 06:23 METAR KFVE 181023Z AUTO 04007KT 10SM SCT016 OVC060 16/13 A2987 RMK AO2 T01560128
                 =
2018-08-18 05:53 METAR KFVE 180953Z AUTO 01008KT 10SM BKN015 BKN023 OVC032 15/13 A2988 RMK AO2
                 SLP113 T01500128 =
2018-08-18 05:46 METAR KFVE 180946Z AUTO 01007KT 10SM BKN015 BKN023 OVC043 15/13 A2988 RMK AO2
                 T01500128 =
2018-08-18 04:53 METAR KFVE 180853Z AUTO 02004KT 10SM BKN037 OVC055 15/13 A2987 RMK AO2 RAE46
                 SLP111 P0001 60007 T01500128 56009 =
2018-08-18 03:53 METAR KFVE 180753Z AUTO 05006KT 7SM -RA BKN060 OVC085 16/13 A2987 RMK AO2 SLP111
                 P0002 T01560133 =
2018-08-18 02:53 METAR KFVE 180653Z AUTO 05007G15KT 7SM -RA FEW039 OVC055 16/13 A2988 RMK AO2
                 SLP112 P0004 T01610128 =
2018-08-18 01:53 METAR KFVE 180553Z AUTO 02008KT 10SM -RA BKN043 OVC060 16/13 A2990 RMK AO2
                 SLP121 P0005 60014 T01610133 10211 20161 58008 =
2018-08-18 00:53 METAR KFVE 180453Z AUTO 35008KT 4SM RA BR FEW005 BKN041 OVC050 17/15 A2993 RMK
                 AO2 SLP130 P0005 T01720150 402560089 =
2018-08-18 00:32 METAR KFVE 180432Z AUTO 32008KT 4SM RA BR FEW005 SCT050 OVC060 17/15 A2993 RMK
                 AO2 P0003 T01720150 =
2018-08-17 23:53 METAR KFVE 180353Z AUTO 28007KT 9SM -RA FEW042 OVC060 18/15 A2993 RMK AO2 RAB10
                 SLP130 P0002 T01780150 =
2018-08-17 22:53 METAR KFVE 180253Z AUTO 16005KT 10SM OVC070 18/16 A2993 RMK AO2 RAE40 SLP129
                 P0002 60002 T01830156 58005 =
2018-08-17 21:53 METAR KFVE 180153Z AUTO 13005KT 10SM -RA BKN090 OVC110 19/14 A2994 RMK AO2
                 SLP134 P0000 T01940144 =
2018-08-17 20:53 METAR KFVE 180053Z AUTO 12005KT 10SM -RA OVC110 20/14 A2995 RMK AO2 RAB19 SLP139
                 P0000 T02000139 =
2018-08-17 19:53 METAR KFVE 172353Z AUTO 07003KT 10SM CLR 21/13 A2994 RMK AO2 SLP136 T02110133
                 10256 20211 56008 =
2018-08-17 18:53 METAR KFVE 172253Z AUTO 36004KT 10SM CLR 22/13 A2995 RMK AO2 SLP138 T02170133 =
2018-08-17 17:53 METAR KFVE 172153Z AUTO 33004KT 10SM CLR 23/14 A2995 RMK AO2 SLP139 T02280144 =
2018-08-17 16:53 METAR KFVE 172053Z AUTO 17004KT 10SM CLR 24/12 A2996 RMK AO2 SLP144 T02440122
                 56016 =
2018-08-17 15:53 METAR KFVE 171953Z AUTO 20004KT 10SM CLR 24/12 A2998 RMK AO2 SLP148 T02440117 =
2018-08-17 14:53 METAR KFVE 171853Z AUTO 19007G15KT 160V230 10SM CLR 24/12 A2999 RMK AO2 SLP153
                 T02440117 =
2018-08-17 13:53 METAR KFVE 171753Z AUTO 16005KT 10SM CLR 23/13 A3001 RMK AO2 SLP159 T02330128
                 10233 20133 56022 =
2018-08-17 12:53 METAR KFVE 171653Z AUTO 19005KT 10SM SCT035 22/13 A3003 RMK AO2 SLP167 T02220128
                 =
2018-08-17 11:53 METAR KFVE 171553Z AUTO 17007KT 10SM SCT030 21/12 A3005 RMK AO2 SLP174 T02110122
                 =
2018-08-17 10:53 METAR KFVE 171453Z AUTO 21005KT 10SM CLR 19/11 A3008 RMK AO2 SLP183 T01890111
                 58012 =

Support USWX by starting your Amazon purchase here.